Time;durP1;ratioP1;P1;durP2;ratioP2;P2;SDS_P1;SDS_P2;PMS_P1;PMS_P2;Temp;Humidity;BMP_temperature;BMP_pressure;BME280_temperature;BME280_humidity;BME280_pressure;Samples;Min_cycle;Max_cycle;Signal;HPM_P1;HPM_P2
2023/07/30 00:00:40;;;;;;;0.45;0.45;;;24.80;69.70;;;;;;5111363;28;20197;-81
2023/07/30 00:03:08;;;;;;;0.95;0.30;;;24.80;69.80;;;;;;5104067;28;20663;-83
2023/07/30 00:05:37;;;;;;;0.68;0.65;;;24.80;70.10;;;;;;5110621;28;20189;-81
2023/07/30 00:08:05;;;;;;;1.25;0.73;;;24.80;70.20;;;;;;5110657;28;20193;-83
2023/07/30 00:10:36;;;;;;;0.30;0.30;;;24.80;70.30;;;;;;5110312;27;20225;-81
2023/07/30 00:13:05;;;;;;;1.23;0.70;;;24.80;70.50;;;;;;5109937;27;20207;-83
2023/07/30 00:15:34;;;;;;;0.50;0.50;;;24.70;70.70;;;;;;5104326;28;20200;-81
2023/07/30 00:18:02;;;;;;;1.20;0.77;;;24.70;71.00;;;;;;5110871;28;20303;-83
2023/07/30 00:20:31;;;;;;;1.35;0.90;;;24.70;71.10;;;;;;5110468;28;20266;-80
2023/07/30 00:23:00;;;;;;;0.70;0.70;;;24.70;71.10;;;;;;5110130;28;20666;-82
2023/07/30 00:25:28;;;;;;;0.95;0.52;;;24.70;71.20;;;;;;5093789;28;20193;-82
2023/07/30 00:27:58;;;;;;;0.40;0.30;;;24.60;71.40;;;;;;5109992;28;20228;-82
2023/07/30 00:30:27;;;;;;;0.28;0.28;;;24.60;71.40;;;;;;5109042;28;20207;-80
2023/07/30 00:32:55;;;;;;;1.30;0.95;;;24.60;71.70;;;;;;5109025;28;20292;-83
2023/07/30 00:35:24;;;;;;;1.67;0.65;;;24.60;72.10;;;;;;5110991;27;20196;-80
2023/07/30 00:37:52;;;;;;;1.20;0.65;;;24.50;72.10;;;;;;5107618;28;20246;-82
2023/07/30 00:40:21;;;;;;;0.40;0.30;;;24.50;72.00;;;;;;5108366;28;20247;-81
2023/07/30 00:42:49;;;;;;;2.03;1.30;;;24.50;72.50;;;;;;5107599;28;20201;-81
2023/07/30 00:45:20;;;;;;;0.20;0.20;;;24.50;72.60;;;;;;5110660;28;20193;-82
2023/07/30 00:47:49;;;;;;;1.15;1.05;;;24.40;72.60;;;;;;5110853;28;20663;-82
2023/07/30 00:50:19;;;;;;;0.22;0.22;;;24.40;72.60;;;;;;5111103;28;20201;-82
2023/07/30 00:52:48;;;;;;;0.32;0.32;;;24.40;72.90;;;;;;5110630;28;20618;-83
2023/07/30 00:55:17;;;;;;;0.75;0.75;;;24.40;73.60;;;;;;5112331;28;20197;-84
2023/07/30 00:57:46;;;;;;;1.27;0.60;;;24.30;73.90;;;;;;5109506;28;20217;-84
2023/07/30 01:00:15;;;;;;;0.55;0.50;;;24.30;73.80;;;;;;5109840;28;20193;-84
2023/07/30 01:02:47;;;;;;;0.77;0.77;;;24.30;73.60;;;;;;5110459;28;20656;-84
2023/07/30 01:05:16;;;;;;;0.47;0.43;;;24.30;73.60;;;;;;5111978;28;20193;-83
2023/07/30 01:07:44;;;;;;;0.85;0.60;;;24.30;73.60;;;;;;5103787;28;20801;-83
2023/07/30 01:10:13;;;;;;;4.07;1.08;;;24.20;73.60;;;;;;5110543;27;20236;-83
2023/07/30 01:12:46;;;;;;;2.45;1.45;;;24.20;73.70;;;;;;5092209;28;20640;-84
2023/07/30 01:15:18;;;;;;;1.23;0.85;;;24.20;73.70;;;;;;5108452;28;20200;-82
2023/07/30 01:17:48;;;;;;;0.55;0.47;;;24.20;73.90;;;;;;5109844;28;20251;-83
2023/07/30 01:20:17;;;;;;;0.32;0.32;;;24.20;73.90;;;;;;5111533;28;20225;-84
2023/07/30 01:22:47;;;;;;;0.73;0.43;;;24.20;74.20;;;;;;5108934;28;20190;-85
2023/07/30 01:25:16;;;;;;;0.63;0.50;;;24.10;74.40;;;;;;5112363;28;20192;-84
2023/07/30 01:27:52;;;;;;;0.20;0.20;;;24.10;74.60;;;;;;5102233;27;20186;-82
2023/07/30 01:30:26;;;;;;;0.52;0.52;;;24.00;74.50;;;;;;5100138;28;20208;-83
2023/07/30 01:32:56;;;;;;;6.72;0.45;;;24.00;74.50;;;;;;5111831;28;20201;-84
2023/07/30 01:35:28;;;;;;;0.50;0.50;;;24.00;74.40;;;;;;5108741;28;20272;-82
2023/07/30 01:37:59;;;;;;;0.40;0.35;;;24.00;74.40;;;;;;5091445;28;20212;-84
2023/07/30 01:40:29;;;;;;;0.73;0.43;;;24.00;74.30;;;;;;5105169;28;20185;-82
2023/07/30 01:42:58;;;;;;;0.30;0.30;;;24.00;74.40;;;;;;5107130;28;20216;-83
2023/07/30 01:45:26;;;;;;;0.30;0.30;;;24.00;74.50;;;;;;5107678;28;20204;-80
2023/07/30 01:47:55;;;;;;;0.50;0.47;;;23.90;74.80;;;;;;5092403;28;20664;-83
2023/07/30 01:50:24;;;;;;;0.85;0.70;;;23.90;74.70;;;;;;5091840;28;20221;-81
2023/07/30 01:52:52;;;;;;;1.90;1.27;;;23.90;75.60;;;;;;5108719;28;20553;-83
2023/07/30 01:55:23;;;;;;;0.82;0.50;;;23.90;74.90;;;;;;5108602;28;20188;-82
2023/07/30 01:57:51;;;;;;;0.30;0.30;;;23.90;75.00;;;;;;5108940;28;20266;-82
2023/07/30 02:00:20;;;;;;;0.50;0.50;;;23.80;75.00;;;;;;5107574;28;20201;-83
2023/07/30 02:02:49;;;;;;;0.30;0.30;;;23.80;75.00;;;;;;5104248;27;20197;-83
2023/07/30 02:05:18;;;;;;;0.52;0.52;;;23.80;75.30;;;;;;5108244;28;20636;-81
2023/07/30 02:07:47;;;;;;;0.43;0.43;;;23.80;75.50;;;;;;5107264;28;20948;-83
2023/07/30 02:10:15;;;;;;;0.98;0.88;;;23.70;75.30;;;;;;5110966;28;20226;-84
2023/07/30 02:12:45;;;;;;;0.30;0.30;;;23.70;75.20;;;;;;5108608;28;20277;-83
2023/07/30 02:15:14;;;;;;;0.77;0.65;;;23.70;75.20;;;;;;5109128;28;20639;-81
2023/07/30 02:17:42;;;;;;;1.55;0.57;;;23.70;75.20;;;;;;5107106;28;20730;-84
2023/07/30 02:20:12;;;;;;;0.32;0.25;;;23.70;75.30;;;;;;5110082;28;20716;-82
2023/07/30 02:22:40;;;;;;;0.32;0.32;;;23.70;75.50;;;;;;5105942;28;20189;-83
2023/07/30 02:25:09;;;;;;;0.30;0.30;;;23.70;75.50;;;;;;5102391;28;20560;-83
2023/07/30 02:27:38;;;;;;;0.30;0.30;;;23.70;75.50;;;;;;5108143;28;20651;-83
2023/07/30 02:30:09;;;;;;;0.80;0.40;;;23.70;75.50;;;;;;5109460;28;20844;-83
2023/07/30 02:32:37;;;;;;;0.20;0.20;;;23.60;75.50;;;;;;5106846;28;20181;-83
2023/07/30 02:35:07;;;;;;;2.60;1.13;;;23.60;75.60;;;;;;5104737;28;20190;-83
2023/07/30 02:37:35;;;;;;;0.63;0.40;;;23.60;75.80;;;;;;5098018;28;20761;-84
2023/07/30 02:40:05;;;;;;;0.30;0.30;;;23.60;75.90;;;;;;5110207;28;20223;-83
2023/07/30 02:42:33;;;;;;;0.52;0.50;;;23.60;75.90;;;;;;5106037;28;20189;-83
2023/07/30 02:45:02;;;;;;;0.20;0.20;;;23.60;76.00;;;;;;5105769;28;20193;-83
2023/07/30 02:47:32;;;;;;;0.57;0.47;;;23.50;75.90;;;;;;5095438;27;20193;-82
2023/07/30 02:50:00;;;;;;;0.30;0.30;;;23.50;76.10;;;;;;5106597;28;20635;-84
2023/07/30 02:52:29;;;;;;;0.52;0.52;;;23.50;76.10;;;;;;5104816;27;20193;-84
2023/07/30 02:54:57;;;;;;;0.50;0.50;;;23.50;76.10;;;;;;5105409;28;20205;-83
2023/07/30 02:57:26;;;;;;;0.22;0.22;;;23.50;76.10;;;;;;5105500;28;20655;-84
2023/07/30 02:59:55;;;;;;;0.60;0.47;;;23.50;76.20;;;;;;5105747;28;20201;-82
2023/07/30 03:02:24;;;;;;;1.05;0.50;;;23.50;76.30;;;;;;5104818;28;20208;-83
2023/07/30 03:04:54;;;;;;;0.28;0.28;;;23.40;76.50;;;;;;5107022;27;20292;-84
2023/07/30 03:07:25;;;;;;;0.43;0.40;;;23.50;76.40;;;;;;5106690;28;20220;-84
2023/07/30 03:09:53;;;;;;;1.50;0.50;;;23.40;76.30;;;;;;5099408;28;20196;-84
2023/07/30 03:12:22;;;;;;;0.80;0.68;;;23.40;76.30;;;;;;5106440;28;20652;-82
2023/07/30 03:14:50;;;;;;;1.58;0.63;;;23.40;76.50;;;;;;5097976;28;20186;-83
2023/07/30 03:17:19;;;;;;;0.28;0.20;;;23.40;76.50;;;;;;5091727;28;20189;-84
2023/07/30 03:19:48;;;;;;;0.13;0.13;;;23.40;76.50;;;;;;5104839;28;20233;-84
2023/07/30 03:22:18;;;;;;;0.52;0.52;;;23.40;76.50;;;;;;5105701;28;20205;-84
2023/07/30 03:24:48;;;;;;;0.45;0.45;;;23.40;76.50;;;;;;5106960;28;20196;-83
2023/07/30 03:27:16;;;;;;;0.50;0.50;;;23.40;76.50;;;;;;5106624;28;20622;-84
2023/07/30 03:29:45;;;;;;;0.57;0.40;;;23.40;76.60;;;;;;5106466;28;20193;-84
2023/07/30 03:32:13;;;;;;;0.70;0.47;;;23.40;77.60;;;;;;5103326;28;20198;-83
2023/07/30 03:34:42;;;;;;;0.68;0.50;;;23.40;76.90;;;;;;5108492;28;20193;-84
2023/07/30 03:37:10;;;;;;;0.88;0.73;;;23.40;77.00;;;;;;5103614;28;20194;-84
2023/07/30 03:39:40;;;;;;;2.65;0.82;;;23.40;77.10;;;;;;5108889;28;20659;-84
2023/07/30 03:42:08;;;;;;;0.20;0.20;;;23.40;77.20;;;;;;5093172;28;20893;-82
2023/07/30 03:44:37;;;;;;;0.70;0.70;;;23.40;77.20;;;;;;5108777;28;20197;-83
2023/07/30 03:47:05;;;;;;;0.57;0.30;;;23.40;77.20;;;;;;5098505;28;20196;-81
2023/07/30 03:49:33;;;;;;;0.30;0.30;;;23.40;77.40;;;;;;5097322;28;20319;-84
2023/07/30 03:52:02;;;;;;;0.73;0.50;;;23.40;77.30;;;;;;5098683;28;20198;-83
2023/07/30 03:54:30;;;;;;;0.32;0.30;;;23.40;77.30;;;;;;5105353;28;20247;-84
2023/07/30 03:57:00;;;;;;;0.63;0.60;;;23.40;77.40;;;;;;5105742;28;20541;-82
2023/07/30 03:59:29;;;;;;;0.30;0.30;;;23.40;77.30;;;;;;5108565;28;20608;-82
2023/07/30 04:01:57;;;;;;;1.65;0.88;;;23.40;77.40;;;;;;5106276;28;20566;-83
2023/07/30 04:04:26;;;;;;;0.70;0.60;;;23.50;77.50;;;;;;5103666;28;20646;-82
2023/07/30 04:06:55;;;;;;;0.28;0.28;;;23.50;77.50;;;;;;5103865;28;20207;-82
2023/07/30 04:09:23;;;;;;;0.30;0.30;;;23.50;77.60;;;;;;5104533;28;20200;-82
2023/07/30 04:11:52;;;;;;;0.40;0.40;;;23.50;77.60;;;;;;5105482;28;20189;-82
2023/07/30 04:14:21;;;;;;;0.32;0.32;;;23.50;77.50;;;;;;5103846;28;20250;-80
2023/07/30 04:16:50;;;;;;;1.65;0.88;;;23.60;77.50;;;;;;5101636;28;20190;-81
2023/07/30 04:19:19;;;;;;;0.93;0.77;;;23.60;77.50;;;;;;5107643;28;20759;-81
2023/07/30 04:21:47;;;;;;;0.30;0.30;;;23.60;77.60;;;;;;5063463;28;20190;-83
2023/07/30 04:24:16;;;;;;;1.20;0.63;;;23.60;77.70;;;;;;5067309;28;20599;-82
2023/07/30 04:26:44;;;;;;;8.02;1.23;;;23.70;77.80;;;;;;5072147;28;20642;-82
2023/07/30 04:29:13;;;;;;;0.60;0.60;;;23.70;78.40;;;;;;5073810;28;20209;-85
2023/07/30 04:31:44;;;;;;;0.88;0.88;;;23.70;78.30;;;;;;5070601;28;20635;-82
2023/07/30 04:34:13;;;;;;;2.30;0.70;;;23.70;78.50;;;;;;5069539;28;20182;-82
2023/07/30 04:36:42;;;;;;;0.52;0.52;;;23.80;78.70;;;;;;5068049;28;20622;-81
2023/07/30 04:39:12;;;;;;;1.10;0.82;;;23.80;79.00;;;;;;5065735;28;20242;-82
2023/07/30 04:41:41;;;;;;;0.60;0.47;;;23.80;78.70;;;;;;5071003;28;20220;-82
2023/07/30 04:44:10;;;;;;;0.70;0.70;;;23.90;78.60;;;;;;5066455;28;20342;-81
2023/07/30 04:46:38;;;;;;;0.60;0.60;;;23.90;78.70;;;;;;5063381;28;20198;-82
2023/07/30 04:49:08;;;;;;;0.70;0.70;;;23.90;78.50;;;;;;5066305;28;20201;-82
2023/07/30 04:51:38;;;;;;;2.25;0.63;;;24.00;78.50;;;;;;5064404;28;20428;-82
2023/07/30 04:54:07;;;;;;;0.40;0.40;;;24.10;78.70;;;;;;5067308;28;20221;-81
2023/07/30 04:56:35;;;;;;;0.43;0.43;;;24.10;78.60;;;;;;5069173;28;20195;-81
2023/07/30 04:59:04;;;;;;;0.43;0.43;;;24.10;78.40;;;;;;5067890;28;20699;-80
2023/07/30 05:01:33;;;;;;;0.30;0.30;;;24.20;78.30;;;;;;5067972;28;20194;-82
2023/07/30 05:04:02;;;;;;;3.08;0.45;;;24.20;78.10;;;;;;5065902;28;20199;-81
2023/07/30 05:06:32;;;;;;;0.40;0.35;;;24.30;78.00;;;;;;5067110;28;20291;-81
2023/07/30 05:09:01;;;;;;;0.40;0.40;;;24.30;78.00;;;;;;5062515;28;20656;-80
2023/07/30 05:11:29;;;;;;;0.50;0.50;;;24.30;78.00;;;;;;5065252;28;20194;-82
2023/07/30 05:13:58;;;;;;;0.65;0.60;;;24.40;78.30;;;;;;5069250;28;20198;-80
2023/07/30 05:16:26;;;;;;;1.10;0.60;;;24.40;78.80;;;;;;5064981;28;20237;-80
2023/07/30 05:18:55;;;;;;;0.88;0.85;;;24.50;78.50;;;;;;5064183;28;20271;-78
2023/07/30 05:21:23;;;;;;;0.20;0.20;;;24.50;78.80;;;;;;5101818;28;20224;-80
2023/07/30 05:23:53;;;;;;;1.15;0.45;;;24.60;78.30;;;;;;5102529;28;20200;-79
2023/07/30 05:26:21;;;;;;;1.45;0.52;;;24.60;78.20;;;;;;5103614;28;20189;-78
2023/07/30 05:28:49;;;;;;;1.13;1.02;;;24.60;78.00;;;;;;5097760;28;20200;-79
2023/07/30 05:31:18;;;;;;;0.40;0.40;;;24.70;77.90;;;;;;5102302;28;20200;-81
2023/07/30 05:33:46;;;;;;;15.80;0.63;;;24.80;77.80;;;;;;5108846;27;20193;-81
2023/07/30 05:36:14;;;;;;;1.13;0.43;;;24.80;77.70;;;;;;5106968;28;20204;-81
2023/07/30 05:38:43;;;;;;;0.30;0.30;;;24.90;77.60;;;;;;5109478;28;20192;-78
2023/07/30 05:41:12;;;;;;;0.40;0.40;;;25.00;77.50;;;;;;5100780;28;20229;-80
2023/07/30 05:43:41;;;;;;;0.40;0.40;;;25.00;77.50;;;;;;5107429;28;20193;-79
2023/07/30 05:46:09;;;;;;;0.75;0.45;;;25.10;77.70;;;;;;5103634;28;20286;-80
2023/07/30 05:48:38;;;;;;;0.52;0.50;;;25.20;77.70;;;;;;5110273;27;20199;-81
2023/07/30 05:51:06;;;;;;;0.52;0.52;;;25.30;77.90;;;;;;5108918;28;20301;-81
2023/07/30 05:53:35;;;;;;;0.30;0.30;;;25.30;77.70;;;;;;5112997;28;20620;-87
2023/07/30 05:56:03;;;;;;;1.08;0.85;;;25.40;77.50;;;;;;5101608;27;20196;-80
2023/07/30 05:58:33;;;;;;;1.05;0.75;;;25.50;77.50;;;;;;5109515;28;20200;-81
2023/07/30 06:01:01;;;;;;;0.95;0.95;;;25.60;78.20;;;;;;5106280;28;20208;-81
2023/07/30 06:03:30;;;;;;;0.77;0.57;;;25.60;77.20;;;;;;5108819;28;20205;-80
2023/07/30 06:05:58;;;;;;;0.60;0.60;;;25.70;77.10;;;;;;5110276;28;20193;-82
2023/07/30 06:08:26;;;;;;;1.20;0.50;;;25.70;76.90;;;;;;5106927;27;20189;-80
2023/07/30 06:10:55;;;;;;;1.20;0.95;;;25.80;76.90;;;;;;5107924;28;20189;-80
2023/07/30 06:13:23;;;;;;;0.75;0.63;;;25.90;76.80;;;;;;5099276;27;20252;-79
2023/07/30 06:15:53;;;;;;;0.60;0.55;;;25.90;76.60;;;;;;5103030;27;20564;-79
2023/07/30 06:18:21;;;;;;;0.30;0.30;;;26.00;76.60;;;;;;5104705;28;20193;-80
2023/07/30 06:20:50;;;;;;;0.35;0.35;;;26.10;76.60;;;;;;5104362;28;20749;-81
2023/07/30 06:23:18;;;;;;;0.82;0.82;;;26.10;76.40;;;;;;5102680;28;20196;-80
2023/07/30 06:25:46;;;;;;;0.35;0.35;;;26.20;76.30;;;;;;5104609;28;20200;-82
2023/07/30 06:28:14;;;;;;;0.73;0.40;;;26.30;76.20;;;;;;5112006;28;20189;-81
2023/07/30 06:30:43;;;;;;;0.82;0.47;;;26.40;76.10;;;;;;5107402;28;20225;-82
2023/07/30 06:33:13;;;;;;;0.82;0.43;;;26.40;75.90;;;;;;5105120;27;20887;-81
2023/07/30 06:35:41;;;;;;;0.75;0.40;;;26.50;75.80;;;;;;5109250;28;20188;-82
2023/07/30 06:38:10;;;;;;;0.52;0.20;;;26.60;75.60;;;;;;5109277;28;20197;-78
2023/07/30 06:40:39;;;;;;;0.43;0.30;;;26.70;75.50;;;;;;5082741;28;20216;-79
2023/07/30 06:43:07;;;;;;;0.82;0.60;;;26.80;75.30;;;;;;5107226;28;20204;-78
2023/07/30 06:45:35;;;;;;;0.30;0.30;;;26.80;75.00;;;;;;5106421;28;20193;-79
2023/07/30 06:48:04;;;;;;;10.57;1.73;;;26.90;74.90;;;;;;5108263;28;20200;-80
2023/07/30 06:50:34;;;;;;;0.75;0.55;;;27.00;74.10;;;;;;5108240;28;20705;-79
2023/07/30 06:53:03;;;;;;;2.17;0.70;;;27.10;74.30;;;;;;5084315;28;20197;-79
2023/07/30 06:55:31;;;;;;;0.77;0.47;;;27.10;73.50;;;;;;5103137;28;20200;-80
2023/07/30 06:58:00;;;;;;;1.38;0.90;;;27.20;73.50;;;;;;5105000;28;20197;-80
2023/07/30 07:00:28;;;;;;;0.57;0.55;;;27.30;73.30;;;;;;5105730;28;20255;-80
2023/07/30 07:02:57;;;;;;;0.52;0.52;;;27.40;73.30;;;;;;5108874;28;20208;-81
2023/07/30 07:05:26;;;;;;;0.38;0.32;;;27.40;73.10;;;;;;5104301;28;20189;-80
2023/07/30 07:07:56;;;;;;;0.43;0.43;;;27.50;73.30;;;;;;5096159;28;20893;-79
2023/07/30 07:10:25;;;;;;;0.40;0.40;;;27.60;73.30;;;;;;5102822;27;21122;-81
2023/07/30 07:12:54;;;;;;;0.60;0.57;;;27.70;73.00;;;;;;5104448;28;20204;-82
2023/07/30 07:15:22;;;;;;;0.55;0.40;;;27.80;73.00;;;;;;5107764;28;20204;-82
2023/07/30 07:17:51;;;;;;;0.30;0.30;;;27.80;72.70;;;;;;5106082;28;20640;-79
2023/07/30 07:20:19;;;;;;;0.30;0.30;;;27.90;72.80;;;;;;5090250;28;20315;-80
2023/07/30 07:22:48;;;;;;;2.10;1.20;;;28.00;73.50;;;;;;5104787;28;20189;-80
2023/07/30 07:25:20;;;;;;;0.32;0.32;;;28.00;72.60;;;;;;5106770;28;20199;-81
2023/07/30 07:27:49;;;;;;;0.20;0.20;;;28.10;72.30;;;;;;5105980;28;20185;-81
2023/07/30 07:30:18;;;;;;;0.63;0.55;;;28.20;72.20;;;;;;5108996;28;21848;-81
2023/07/30 07:32:50;;;;;;;0.50;0.50;;;28.20;72.10;;;;;;5105005;27;20204;-80
2023/07/30 07:35:20;;;;;;;0.32;0.32;;;28.30;71.90;;;;;;5107985;28;20202;-79
2023/07/30 07:37:49;;;;;;;0.20;0.20;;;28.40;71.80;;;;;;5106683;28;20224;-80
2023/07/30 07:40:19;;;;;;;0.80;0.70;;;28.40;71.60;;;;;;5105704;28;20229;-80
2023/07/30 07:42:47;;;;;;;0.40;0.40;;;28.40;70.80;;;;;;5109382;28;20682;-80
2023/07/30 07:45:16;;;;;;;0.93;0.80;;;28.50;69.60;;;;;;5068430;28;20189;-79
2023/07/30 07:47:45;;;;;;;1.38;0.70;;;28.60;69.40;;;;;;5107580;28;20197;-81
2023/07/30 07:50:15;;;;;;;0.60;0.43;;;28.60;68.20;;;;;;5100715;28;20196;-80
2023/07/30 07:52:44;;;;;;;0.95;0.60;;;28.60;67.70;;;;;;5105092;28;20225;-80
2023/07/30 07:55:13;;;;;;;1.15;0.70;;;28.70;67.80;;;;;;5108454;28;20550;-80
2023/07/30 07:57:42;;;;;;;1.65;0.55;;;28.70;68.10;;;;;;5105337;28;20603;-79
2023/07/30 08:00:12;;;;;;;0.30;0.30;;;28.80;68.10;;;;;;5108292;28;20197;-80
2023/07/30 08:02:41;;;;;;;2.80;0.85;;;28.90;69.10;;;;;;5088563;28;20204;-79
2023/07/30 08:05:09;;;;;;;0.30;0.30;;;29.00;68.10;;;;;;5101492;27;20197;-82
2023/07/30 08:07:38;;;;;;;0.38;0.38;;;29.00;68.00;;;;;;5110340;27;20443;-80
2023/07/30 08:10:07;;;;;;;0.28;0.28;;;29.20;67.70;;;;;;5110867;28;20196;-80
2023/07/30 08:12:36;;;;;;;0.50;0.50;;;29.20;68.00;;;;;;5092554;28;20193;-81
2023/07/30 08:15:07;;;;;;;0.70;0.70;;;29.30;67.80;;;;;;5112628;28;20271;-80
2023/07/30 08:17:36;;;;;;;0.22;0.22;;;29.30;67.40;;;;;;5089948;28;20197;-81
2023/07/30 08:20:06;;;;;;;0.93;0.50;;;29.40;65.70;;;;;;5104339;28;20594;-80
2023/07/30 08:22:34;;;;;;;0.50;0.40;;;29.40;64.60;;;;;;5108288;28;20804;-82
2023/07/30 08:25:03;;;;;;;1.02;0.75;;;29.50;63.30;;;;;;5109915;28;20189;-80
2023/07/30 08:27:32;;;;;;;1.10;0.82;;;29.50;63.30;;;;;;5111027;28;20576;-81
2023/07/30 08:30:01;;;;;;;0.57;0.43;;;29.50;62.80;;;;;;5090929;28;20207;-81
2023/07/30 08:32:31;;;;;;;1.30;1.05;;;29.60;62.60;;;;;;5090043;28;20560;-79
2023/07/30 08:35:02;;;;;;;0.22;0.22;;;29.60;61.30;;;;;;5109749;28;20193;-80
2023/07/30 08:37:31;;;;;;;0.22;0.22;;;29.70;61.90;;;;;;5088642;28;20196;-80
2023/07/30 08:40:00;;;;;;;1.75;1.02;;;29.80;61.80;;;;;;5097556;28;20193;-81
2023/07/30 08:42:28;;;;;;;1.85;1.08;;;29.80;61.50;;;;;;5107061;27;20606;-80
2023/07/30 08:44:57;;;;;;;0.98;0.70;;;29.90;62.70;;;;;;5105265;27;20185;-81
2023/07/30 08:47:26;;;;;;;0.95;0.80;;;30.00;61.90;;;;;;5106506;27;20648;-82
2023/07/30 08:49:57;;;;;;;0.60;0.47;;;30.00;59.80;;;;;;5102680;28;20216;-79
2023/07/30 08:52:27;;;;;;;0.95;0.45;;;30.10;60.30;;;;;;5111056;28;20523;-81
2023/07/30 08:54:58;;;;;;;0.30;0.30;;;30.10;59.80;;;;;;5107788;28;20208;-80
2023/07/30 08:57:28;;;;;;;0.43;0.22;;;30.20;59.90;;;;;;5102666;28;20185;-80
2023/07/30 09:00:04;;;;;;;0.65;0.47;;;30.30;59.50;;;;;;5108963;28;20648;-81
2023/07/30 09:02:40;;;;;;;0.30;0.30;;;30.30;59.10;;;;;;5111743;28;20236;-81
2023/07/30 09:05:10;;;;;;;0.35;0.30;;;30.40;59.20;;;;;;5103621;28;20446;-80
2023/07/30 09:07:39;;;;;;;0.30;0.30;;;30.50;59.30;;;;;;5104132;28;20190;-80
2023/07/30 09:10:08;;;;;;;0.50;0.35;;;30.50;59.20;;;;;;5109022;28;20193;-80
2023/07/30 09:12:37;;;;;;;0.82;0.55;;;30.60;59.20;;;;;;5105083;28;20655;-81
2023/07/30 09:15:07;;;;;;;2.85;0.40;;;30.60;59.20;;;;;;5109461;28;22173;-81
2023/07/30 09:17:35;;;;;;;0.50;0.50;;;30.70;59.40;;;;;;5104942;28;20193;-80
2023/07/30 09:20:05;;;;;;;0.77;0.40;;;30.70;59.20;;;;;;5107419;27;20239;-82
2023/07/30 09:22:39;;;;;;;1.42;0.45;;;30.80;58.90;;;;;;5112584;27;20589;-84
2023/07/30 09:25:09;;;;;;;0.70;0.50;;;30.80;58.90;;;;;;5109082;28;20199;-81
2023/07/30 09:27:37;;;;;;;0.30;0.30;;;30.90;58.10;;;;;;5111510;28;20557;-81
2023/07/30 09:30:07;;;;;;;0.50;0.50;;;30.90;57.90;;;;;;5098860;28;20201;-84
2023/07/30 09:32:38;;;;;;;0.80;0.50;;;31.00;57.40;;;;;;5108993;28;20329;-84
2023/07/30 09:35:12;;;;;;;0.38;0.38;;;31.10;57.50;;;;;;5090230;28;20193;-83
2023/07/30 09:37:42;;;;;;;0.82;0.80;;;31.10;57.90;;;;;;5107863;27;20551;-84
2023/07/30 09:40:13;;;;;;;0.65;0.50;;;31.10;57.70;;;;;;5116476;27;20196;-83
2023/07/30 09:42:44;;;;;;;0.52;0.45;;;31.20;57.80;;;;;;5110681;28;20229;-84
2023/07/30 09:45:19;;;;;;;1.83;0.50;;;31.40;57.80;;;;;;5109331;28;20203;-84
2023/07/30 09:47:48;;;;;;;1.13;0.70;;;31.40;57.10;;;;;;5085798;28;20208;-83
2023/07/30 09:50:17;;;;;;;0.38;0.38;;;31.40;57.20;;;;;;5110287;28;20652;-85
2023/07/30 09:52:47;;;;;;;0.40;0.40;;;31.50;57.30;;;;;;5080416;28;21117;-83
2023/07/30 09:55:18;;;;;;;0.50;0.50;;;31.50;56.90;;;;;;5099711;28;21130;-84
2023/07/30 09:57:47;;;;;;;1.90;0.77;;;31.60;56.50;;;;;;5099180;27;20682;-84
2023/07/30 10:00:16;;;;;;;0.57;0.40;;;31.70;56.40;;;;;;5082427;28;20515;-85
2023/07/30 10:02:48;;;;;;;1.95;0.38;;;31.70;56.10;;;;;;5101276;28;20217;-84
2023/07/30 10:05:18;;;;;;;1.17;1.08;;;31.70;54.00;;;;;;5103243;27;20224;-81
2023/07/30 10:08:01;;;;;;;0.52;0.52;;;31.80;54.70;;;;;;5101481;27;20185;-81
2023/07/30 10:10:31;;;;;;;1.67;0.57;;;31.90;55.30;;;;;;5089353;28;20556;-82
2023/07/30 10:13:04;;;;;;;1.45;0.93;;;32.00;55.00;;;;;;5103775;28;20190;-83
2023/07/30 10:15:35;;;;;;;0.35;0.35;;;31.90;53.90;;;;;;5103176;28;20208;-84
2023/07/30 10:18:04;;;;;;;0.60;0.60;;;31.90;53.70;;;;;;5088586;28;20693;-83
2023/07/30 10:20:33;;;;;;;1.38;0.85;;;32.00;54.00;;;;;;5106756;27;20230;-82
2023/07/30 10:23:06;;;;;;;0.73;0.73;;;32.00;53.30;;;;;;5104767;28;20232;-86
2023/07/30 10:25:44;;;;;;;1.55;1.30;;;32.20;53.80;;;;;;5109051;28;20189;-83
2023/07/30 10:28:28;;;;;;;1.45;0.63;;;32.20;54.00;;;;;;5103175;28;20192;-82
2023/07/30 10:30:58;;;;;;;0.30;0.30;;;32.20;54.10;;;;;;5102782;28;20221;-84
2023/07/30 10:33:45;;;;;;;0.77;0.73;;;32.30;54.30;;;;;;5105769;28;20205;-86
2023/07/30 10:36:15;;;;;;;0.77;0.70;;;32.30;53.40;;;;;;5106446;28;20188;-83
2023/07/30 10:38:45;;;;;;;1.35;1.00;;;32.40;52.70;;;;;;5106012;27;20624;-82
2023/07/30 10:41:17;;;;;;;0.88;0.60;;;32.40;53.20;;;;;;5107606;27;20237;-84
2023/07/30 10:43:49;;;;;;;0.40;0.40;;;32.50;53.70;;;;;;5106487;28;20213;-84
2023/07/30 10:46:19;;;;;;;0.60;0.60;;;32.60;53.40;;;;;;5107391;27;20196;-85
2023/07/30 10:48:49;;;;;;;0.55;0.50;;;32.70;53.20;;;;;;5110045;27;20205;-84
2023/07/30 10:51:20;;;;;;;1.02;0.93;;;32.70;52.40;;;;;;5103205;28;20190;-86
2023/07/30 10:53:51;;;;;;;1.15;0.63;;;32.80;51.90;;;;;;5105067;28;20563;-85
2023/07/30 10:56:25;;;;;;;0.90;0.68;;;32.90;51.00;;;;;;5106165;28;20185;-85
2023/07/30 10:58:55;;;;;;;0.57;0.57;;;32.90;51.30;;;;;;5109190;28;20207;-84
2023/07/30 11:01:26;;;;;;;0.30;0.30;;;33.00;51.70;;;;;;5099795;28;20193;-85
2023/07/30 11:03:57;;;;;;;1.23;0.80;;;33.10;51.90;;;;;;5104627;28;20633;-85
2023/07/30 11:06:27;;;;;;;0.40;0.40;;;33.20;52.10;;;;;;5098501;28;20205;-86
2023/07/30 11:08:56;;;;;;;1.23;0.90;;;33.20;52.30;;;;;;5104828;27;20212;-88
2023/07/30 11:11:25;;;;;;;0.40;0.40;;;33.30;52.00;;;;;;5104152;27;21435;-85
2023/07/30 11:13:54;;;;;;;0.93;0.80;;;33.30;51.80;;;;;;5108758;28;20209;-84
2023/07/30 11:16:22;;;;;;;0.40;0.30;;;33.30;51.60;;;;;;5105118;28;20185;-83
2023/07/30 11:18:51;;;;;;;0.52;0.50;;;33.20;51.50;;;;;;5105794;28;20200;-82
2023/07/30 11:21:20;;;;;;;0.47;0.43;;;33.20;51.60;;;;;;5096221;28;20240;-83
2023/07/30 11:23:51;;;;;;;0.40;0.40;;;33.10;51.70;;;;;;5103410;28;20217;-80
2023/07/30 11:26:21;;;;;;;0.93;0.60;;;33.10;51.90;;;;;;5100139;28;20189;-86
2023/07/30 11:28:50;;;;;;;0.70;0.68;;;33.10;51.80;;;;;;5097247;27;20197;-85
2023/07/30 11:31:21;;;;;;;0.95;0.73;;;33.10;51.90;;;;;;5098810;28;20189;-83
2023/07/30 11:33:52;;;;;;;1.58;0.95;;;33.20;52.00;;;;;;5105313;28;20539;-84
2023/07/30 11:36:23;;;;;;;0.52;0.52;;;33.20;51.70;;;;;;5104761;28;20263;-86
2023/07/30 11:38:54;;;;;;;0.73;0.50;;;33.30;52.00;;;;;;5112326;28;20278;-84
2023/07/30 11:41:25;;;;;;;0.55;0.52;;;33.40;52.10;;;;;;5107639;28;20200;-85
2023/07/30 11:43:54;;;;;;;0.68;0.50;;;33.40;52.20;;;;;;5108781;28;20242;-84
2023/07/30 11:46:23;;;;;;;0.80;0.68;;;33.50;51.60;;;;;;5102033;28;20202;-84
2023/07/30 11:48:52;;;;;;;0.77;0.65;;;33.60;51.40;;;;;;5107317;28;20189;-85
2023/07/30 11:51:24;;;;;;;0.38;0.32;;;33.60;50.80;;;;;;5108072;28;20201;-84
2023/07/30 11:53:53;;;;;;;1.17;1.05;;;33.70;50.70;;;;;;5105933;28;20557;-83
2023/07/30 11:56:25;;;;;;;0.63;0.60;;;33.70;49.20;;;;;;5105294;28;20185;-83
2023/07/30 11:58:57;;;;;;;1.75;0.90;;;33.80;49.00;;;;;;5098205;28;20189;-83
2023/07/30 12:01:27;;;;;;;1.70;0.93;;;33.70;48.00;;;;;;5101860;28;20185;-84
2023/07/30 12:03:56;;;;;;;1.85;0.90;;;33.80;48.60;;;;;;5104853;28;20208;-84
2023/07/30 12:06:25;;;;;;;1.10;0.80;;;33.90;49.20;;;;;;5102979;28;20625;-84
2023/07/30 12:08:54;;;;;;;1.73;1.20;;;33.90;49.80;;;;;;5104881;28;20211;-84
2023/07/30 12:11:25;;;;;;;0.43;0.43;;;34.00;49.90;;;;;;5099594;28;20185;-85
2023/07/30 12:13:53;;;;;;;0.85;0.50;;;34.00;50.00;;;;;;5102576;28;20185;-82
2023/07/30 12:16:22;;;;;;;0.50;0.45;;;33.90;49.90;;;;;;5099791;28;20189;-86
2023/07/30 12:18:50;;;;;;;0.80;0.70;;;34.00;50.10;;;;;;5101577;28;20201;-85
2023/07/30 12:21:19;;;;;;;0.73;0.60;;;34.00;50.00;;;;;;5102693;28;20228;-83
2023/07/30 12:23:47;;;;;;;0.95;0.90;;;33.90;49.20;;;;;;5107820;28;20240;-85
2023/07/30 12:26:16;;;;;;;0.30;0.30;;;34.00;48.90;;;;;;5103567;28;20671;-79
2023/07/30 12:28:45;;;;;;;0.73;0.60;;;34.00;48.90;;;;;;5102641;28;20197;-79
2023/07/30 12:31:14;;;;;;;1.38;0.85;;;34.00;49.10;;;;;;5100194;28;20220;-81
2023/07/30 12:33:42;;;;;;;1.55;0.88;;;34.00;49.30;;;;;;5104276;28;20193;-79
2023/07/30 12:36:10;;;;;;;0.38;0.38;;;34.10;49.60;;;;;;5101176;28;20197;-81
2023/07/30 12:38:39;;;;;;;0.40;0.40;;;34.10;49.70;;;;;;5108053;28;20185;-81
2023/07/30 12:41:07;;;;;;;0.52;0.52;;;34.10;49.50;;;;;;5104271;28;20217;-80
2023/07/30 12:43:36;;;;;;;1.17;1.00;;;34.00;49.10;;;;;;5096208;28;21137;-80
2023/07/30 12:46:06;;;;;;;1.83;0.75;;;33.80;48.20;;;;;;5102271;28;20193;-79
2023/07/30 12:48:34;;;;;;;0.60;0.52;;;33.80;48.60;;;;;;5110638;28;20217;-79
2023/07/30 12:51:03;;;;;;;0.77;0.50;;;33.80;48.90;;;;;;5108997;28;20201;-80
2023/07/30 12:53:32;;;;;;;0.90;0.55;;;33.80;49.20;;;;;;5109646;28;20193;-80
2023/07/30 12:56:00;;;;;;;1.30;0.68;;;33.80;49.30;;;;;;5102185;27;20200;-80
2023/07/30 12:58:28;;;;;;;1.15;0.88;;;33.90;49.40;;;;;;5108972;28;20290;-80